sensor_id;sensor_type;location;lat;lon;timestamp;P1;durP1;ratioP1;P2;durP2;ratioP2
7247;SDS011;3665;51.034;13.642;2023-02-23T00:01:37;24.67;;;15.10;;
7247;SDS011;3665;51.034;13.642;2023-02-23T00:06:24;21.90;;;14.30;;
7247;SDS011;3665;51.034;13.642;2023-02-23T00:11:12;21.37;;;14.43;;
7247;SDS011;3665;51.034;13.642;2023-02-23T00:16:10;19.90;;;14.33;;
7247;SDS011;3665;51.034;13.642;2023-02-23T00:21:11;19.83;;;15.10;;
7247;SDS011;3665;51.034;13.642;2023-02-23T00:26:07;21.33;;;15.27;;
7247;SDS011;3665;51.034;13.642;2023-02-23T00:30:55;21.03;;;14.27;;
7247;SDS011;3665;51.034;13.642;2023-02-23T00:35:44;19.40;;;14.23;;
7247;SDS011;3665;51.034;13.642;2023-02-23T00:40:33;19.17;;;12.53;;
7247;SDS011;3665;51.034;13.642;2023-02-23T00:45:20;17.03;;;12.43;;
7247;SDS011;3665;51.034;13.642;2023-02-23T00:50:10;17.67;;;12.80;;
7247;SDS011;3665;51.034;13.642;2023-02-23T00:54:57;18.77;;;12.83;;
7247;SDS011;3665;51.034;13.642;2023-02-23T00:59:43;18.47;;;12.57;;
7247;SDS011;3665;51.034;13.642;2023-02-23T01:04:26;19.03;;;12.93;;
7247;SDS011;3665;51.034;13.642;2023-02-23T01:09:24;18.63;;;13.17;;
7247;SDS011;3665;51.034;13.642;2023-02-23T01:14:11;15.37;;;11.23;;
7247;SDS011;3665;51.034;13.642;2023-02-23T01:18:57;15.70;;;11.80;;
7247;SDS011;3665;51.034;13.642;2023-02-23T01:23:44;18.07;;;12.33;;
7247;SDS011;3665;51.034;13.642;2023-02-23T01:28:32;16.27;;;11.70;;
7247;SDS011;3665;51.034;13.642;2023-02-23T01:33:20;16.50;;;11.90;;
7247;SDS011;3665;51.034;13.642;2023-02-23T01:38:07;16.23;;;12.47;;
7247;SDS011;3665;51.034;13.642;2023-02-23T01:42:57;15.93;;;12.30;;
7247;SDS011;3665;51.034;13.642;2023-02-23T01:47:43;16.50;;;12.10;;
7247;SDS011;3665;51.034;13.642;2023-02-23T01:52:32;17.57;;;12.57;;
7247;SDS011;3665;51.034;13.642;2023-02-23T01:57:20;19.07;;;13.57;;
7247;SDS011;3665;51.034;13.642;2023-02-23T02:02:07;17.83;;;13.83;;
7247;SDS011;3665;51.034;13.642;2023-02-23T02:06:55;18.43;;;13.33;;
7247;SDS011;3665;51.034;13.642;2023-02-23T02:11:46;19.33;;;13.67;;
7247;SDS011;3665;51.034;13.642;2023-02-23T02:16:49;19.00;;;13.93;;
7247;SDS011;3665;51.034;13.642;2023-02-23T02:22:05;19.30;;;13.53;;
7247;SDS011;3665;51.034;13.642;2023-02-23T02:27:31;19.13;;;13.77;;
7247;SDS011;3665;51.034;13.642;2023-02-23T02:38:05;19.80;;;14.27;;
7247;SDS011;3665;51.034;13.642;2023-02-23T02:43:09;20.10;;;14.37;;
7247;SDS011;3665;51.034;13.642;2023-02-23T02:48:01;18.97;;;13.90;;
7247;SDS011;3665;51.034;13.642;2023-02-23T02:52:56;18.00;;;13.40;;
7247;SDS011;3665;51.034;13.642;2023-02-23T02:57:52;18.97;;;13.60;;
7247;SDS011;3665;51.034;13.642;2023-02-23T03:02:39;18.83;;;13.40;;
7247;SDS011;3665;51.034;13.642;2023-02-23T03:07:41;19.90;;;14.27;;
7247;SDS011;3665;51.034;13.642;2023-02-23T03:12:55;22.80;;;14.83;;
7247;SDS011;3665;51.034;13.642;2023-02-23T03:18:09;19.23;;;13.87;;
7247;SDS011;3665;51.034;13.642;2023-02-23T03:23:19;18.07;;;12.73;;
7247;SDS011;3665;51.034;13.642;2023-02-23T03:28:26;17.37;;;13.33;;
7247;SDS011;3665;51.034;13.642;2023-02-23T03:33:37;18.03;;;13.23;;
7247;SDS011;3665;51.034;13.642;2023-02-23T03:38:48;20.70;;;13.63;;
7247;SDS011;3665;51.034;13.642;2023-02-23T03:44:01;21.40;;;14.43;;
7247;SDS011;3665;51.034;13.642;2023-02-23T03:49:11;21.03;;;14.23;;
7247;SDS011;3665;51.034;13.642;2023-02-23T03:54:16;21.03;;;14.27;;
7247;SDS011;3665;51.034;13.642;2023-02-23T03:59:24;19.10;;;13.03;;
7247;SDS011;3665;51.034;13.642;2023-02-23T04:04:32;18.63;;;14.67;;
7247;SDS011;3665;51.034;13.642;2023-02-23T04:09:35;19.53;;;13.87;;
7247;SDS011;3665;51.034;13.642;2023-02-23T04:14:41;19.73;;;14.27;;
7247;SDS011;3665;51.034;13.642;2023-02-23T04:19:29;20.03;;;14.70;;
7247;SDS011;3665;51.034;13.642;2023-02-23T04:24:14;20.13;;;14.60;;
7247;SDS011;3665;51.034;13.642;2023-02-23T04:29:03;21.63;;;13.47;;
7247;SDS011;3665;51.034;13.642;2023-02-23T04:33:58;19.77;;;13.83;;
7247;SDS011;3665;51.034;13.642;2023-02-23T04:38:41;20.43;;;13.87;;
7247;SDS011;3665;51.034;13.642;2023-02-23T04:43:26;19.17;;;14.13;;
7247;SDS011;3665;51.034;13.642;2023-02-23T04:48:15;18.83;;;14.47;;
7247;SDS011;3665;51.034;13.642;2023-02-23T04:53:09;19.47;;;15.03;;
7247;SDS011;3665;51.034;13.642;2023-02-23T04:57:55;19.23;;;15.17;;
7247;SDS011;3665;51.034;13.642;2023-02-23T05:02:40;19.17;;;14.30;;
7247;SDS011;3665;51.034;13.642;2023-02-23T05:07:30;22.63;;;15.70;;
7247;SDS011;3665;51.034;13.642;2023-02-23T05:12:15;19.73;;;14.00;;
7247;SDS011;3665;51.034;13.642;2023-02-23T05:17:04;21.70;;;14.20;;
7247;SDS011;3665;51.034;13.642;2023-02-23T05:21:49;21.67;;;14.00;;
7247;SDS011;3665;51.034;13.642;2023-02-23T05:26:41;17.40;;;13.47;;
7247;SDS011;3665;51.034;13.642;2023-02-23T05:31:29;21.53;;;14.93;;
7247;SDS011;3665;51.034;13.642;2023-02-23T05:36:13;20.90;;;14.00;;
7247;SDS011;3665;51.034;13.642;2023-02-23T05:41:03;24.37;;;15.87;;
7247;SDS011;3665;51.034;13.642;2023-02-23T05:45:53;24.00;;;16.60;;
7247;SDS011;3665;51.034;13.642;2023-02-23T05:50:41;23.63;;;15.40;;
7247;SDS011;3665;51.034;13.642;2023-02-23T05:55:30;22.27;;;15.27;;
7247;SDS011;3665;51.034;13.642;2023-02-23T06:00:16;24.43;;;15.97;;
7247;SDS011;3665;51.034;13.642;2023-02-23T06:05:06;24.33;;;16.60;;
7247;SDS011;3665;51.034;13.642;2023-02-23T06:09:52;21.77;;;15.63;;
7247;SDS011;3665;51.034;13.642;2023-02-23T06:14:41;22.27;;;15.97;;
7247;SDS011;3665;51.034;13.642;2023-02-23T06:19:28;26.40;;;16.80;;
7247;SDS011;3665;51.034;13.642;2023-02-23T06:24:18;26.53;;;17.13;;
7247;SDS011;3665;51.034;13.642;2023-02-23T06:29:03;31.00;;;20.17;;
7247;SDS011;3665;51.034;13.642;2023-02-23T06:33:52;33.33;;;19.90;;
7247;SDS011;3665;51.034;13.642;2023-02-23T06:38:42;32.13;;;21.50;;
7247;SDS011;3665;51.034;13.642;2023-02-23T06:43:27;30.50;;;20.57;;
7247;SDS011;3665;51.034;13.642;2023-02-23T06:48:19;31.90;;;20.30;;
7247;SDS011;3665;51.034;13.642;2023-02-23T06:53:03;31.90;;;20.10;;
7247;SDS011;3665;51.034;13.642;2023-02-23T06:57:47;30.17;;;21.07;;
7247;SDS011;3665;51.034;13.642;2023-02-23T07:02:40;27.77;;;19.40;;
7247;SDS011;3665;51.034;13.642;2023-02-23T07:07:29;27.27;;;17.67;;
7247;SDS011;3665;51.034;13.642;2023-02-23T07:12:15;28.63;;;17.57;;
7247;SDS011;3665;51.034;13.642;2023-02-23T07:17:02;20.77;;;16.57;;
7247;SDS011;3665;51.034;13.642;2023-02-23T07:21:54;23.03;;;17.47;;
7247;SDS011;3665;51.034;13.642;2023-02-23T07:26:40;23.97;;;17.30;;
7247;SDS011;3665;51.034;13.642;2023-02-23T07:31:27;22.23;;;16.00;;
7247;SDS011;3665;51.034;13.642;2023-02-23T07:36:11;23.13;;;15.40;;
7247;SDS011;3665;51.034;13.642;2023-02-23T07:41:06;21.03;;;14.87;;
7247;SDS011;3665;51.034;13.642;2023-02-23T07:45:55;18.70;;;15.60;;
7247;SDS011;3665;51.034;13.642;2023-02-23T07:50:41;22.27;;;15.77;;
7247;SDS011;3665;51.034;13.642;2023-02-23T07:55:27;22.07;;;16.33;;
7247;SDS011;3665;51.034;13.642;2023-02-23T08:00:15;22.07;;;16.43;;
7247;SDS011;3665;51.034;13.642;2023-02-23T08:05:03;19.10;;;14.67;;
7247;SDS011;3665;51.034;13.642;2023-02-23T08:09:53;21.43;;;15.60;;
7247;SDS011;3665;51.034;13.642;2023-02-23T08:14:39;19.60;;;15.07;;
7247;SDS011;3665;51.034;13.642;2023-02-23T08:19:29;18.33;;;13.93;;
7247;SDS011;3665;51.034;13.642;2023-02-23T08:24:16;19.23;;;14.13;;
7247;SDS011;3665;51.034;13.642;2023-02-23T08:29:04;21.33;;;14.80;;
7247;SDS011;3665;51.034;13.642;2023-02-23T08:33:48;18.43;;;14.70;;
7247;SDS011;3665;51.034;13.642;2023-02-23T08:38:33;18.67;;;15.40;;
7247;SDS011;3665;51.034;13.642;2023-02-23T08:43:31;19.33;;;15.27;;
7247;SDS011;3665;51.034;13.642;2023-02-23T08:48:15;17.73;;;14.50;;
7247;SDS011;3665;51.034;13.642;2023-02-23T08:53:03;18.23;;;15.00;;
7247;SDS011;3665;51.034;13.642;2023-02-23T08:57:47;18.60;;;14.43;;
7247;SDS011;3665;51.034;13.642;2023-02-23T09:02:40;18.77;;;15.23;;
7247;SDS011;3665;51.034;13.642;2023-02-23T09:07:27;17.83;;;14.60;;
7247;SDS011;3665;51.034;13.642;2023-02-23T09:12:15;20.30;;;15.57;;
7247;SDS011;3665;51.034;13.642;2023-02-23T09:17:03;19.63;;;15.63;;
7247;SDS011;3665;51.034;13.642;2023-02-23T09:21:51;18.87;;;15.27;;
7247;SDS011;3665;51.034;13.642;2023-02-23T09:26:41;19.23;;;15.07;;
7247;SDS011;3665;51.034;13.642;2023-02-23T09:31:29;20.13;;;16.10;;
7247;SDS011;3665;51.034;13.642;2023-02-23T09:36:18;17.97;;;15.07;;
7247;SDS011;3665;51.034;13.642;2023-02-23T09:41:04;18.27;;;15.80;;
7247;SDS011;3665;51.034;13.642;2023-02-23T09:46:10;19.47;;;16.17;;
7247;SDS011;3665;51.034;13.642;2023-02-23T09:51:05;17.30;;;14.97;;
7247;SDS011;3665;51.034;13.642;2023-02-23T09:55:59;17.33;;;14.17;;
7247;SDS011;3665;51.034;13.642;2023-02-23T10:00:50;15.97;;;13.30;;
7247;SDS011;3665;51.034;13.642;2023-02-23T10:05:53;16.00;;;13.17;;
7247;SDS011;3665;51.034;13.642;2023-02-23T10:10:43;16.27;;;13.77;;
7247;SDS011;3665;51.034;13.642;2023-02-23T10:15:31;16.10;;;13.13;;
7247;SDS011;3665;51.034;13.642;2023-02-23T10:20:36;15.03;;;12.53;;
7247;SDS011;3665;51.034;13.642;2023-02-23T10:25:33;14.93;;;13.33;;
7247;SDS011;3665;51.034;13.642;2023-02-23T10:30:26;12.70;;;11.40;;
7247;SDS011;3665;51.034;13.642;2023-02-23T10:35:11;13.00;;;11.47;;
7247;SDS011;3665;51.034;13.642;2023-02-23T10:40:01;11.50;;;10.33;;
7247;SDS011;3665;51.034;13.642;2023-02-23T10:44:49;12.60;;;10.80;;
7247;SDS011;3665;51.034;13.642;2023-02-23T10:49:38;11.87;;;10.67;;
7247;SDS011;3665;51.034;13.642;2023-02-23T10:54:40;14.33;;;11.87;;
7247;SDS011;3665;51.034;13.642;2023-02-23T10:59:27;13.53;;;11.47;;
7247;SDS011;3665;51.034;13.642;2023-02-23T11:04:14;15.13;;;13.10;;
7247;SDS011;3665;51.034;13.642;2023-02-23T11:09:07;13.93;;;12.43;;
7247;SDS011;3665;51.034;13.642;2023-02-23T11:14:27;13.77;;;11.30;;
7247;SDS011;3665;51.034;13.642;2023-02-23T11:19:16;13.33;;;11.80;;
7247;SDS011;3665;51.034;13.642;2023-02-23T11:24:21;13.00;;;11.60;;
7247;SDS011;3665;51.034;13.642;2023-02-23T11:29:20;12.77;;;11.37;;
7247;SDS011;3665;51.034;13.642;2023-02-23T11:34:16;14.33;;;12.23;;
7247;SDS011;3665;51.034;13.642;2023-02-23T11:39:13;11.23;;;10.00;;
7247;SDS011;3665;51.034;13.642;2023-02-23T11:44:01;13.90;;;12.27;;
7247;SDS011;3665;51.034;13.642;2023-02-23T11:49:02;13.23;;;11.17;;
7247;SDS011;3665;51.034;13.642;2023-02-23T11:53:56;11.73;;;10.53;;
7247;SDS011;3665;51.034;13.642;2023-02-23T11:58:42;13.43;;;11.30;;
7247;SDS011;3665;51.034;13.642;2023-02-23T12:03:28;12.87;;;11.53;;
7247;SDS011;3665;51.034;13.642;2023-02-23T12:08:15;13.17;;;11.77;;
7247;SDS011;3665;51.034;13.642;2023-02-23T12:13:20;13.90;;;11.50;;
7247;SDS011;3665;51.034;13.642;2023-02-23T12:18:13;10.73;;;9.27;;
7247;SDS011;3665;51.034;13.642;2023-02-23T12:23:05;9.13;;;8.23;;
7247;SDS011;3665;51.034;13.642;2023-02-23T12:28:02;11.87;;;10.37;;
7247;SDS011;3665;51.034;13.642;2023-02-23T12:33:04;12.10;;;10.90;;
7247;SDS011;3665;51.034;13.642;2023-02-23T12:38:10;12.47;;;11.17;;
7247;SDS011;3665;51.034;13.642;2023-02-23T12:43:14;13.07;;;10.33;;
7247;SDS011;3665;51.034;13.642;2023-02-23T12:48:26;12.40;;;10.37;;
7247;SDS011;3665;51.034;13.642;2023-02-23T12:53:20;12.40;;;10.30;;
7247;SDS011;3665;51.034;13.642;2023-02-23T12:58:10;12.53;;;10.53;;
7247;SDS011;3665;51.034;13.642;2023-02-23T13:03:13;12.43;;;10.73;;
7247;SDS011;3665;51.034;13.642;2023-02-23T13:08:36;13.53;;;11.43;;
7247;SDS011;3665;51.034;13.642;2023-02-23T13:13:40;12.87;;;11.60;;
7247;SDS011;3665;51.034;13.642;2023-02-23T13:18:40;12.00;;;10.63;;
7247;SDS011;3665;51.034;13.642;2023-02-23T13:23:31;11.27;;;9.73;;
7247;SDS011;3665;51.034;13.642;2023-02-23T13:28:33;14.63;;;10.53;;
7247;SDS011;3665;51.034;13.642;2023-02-23T13:33:29;13.00;;;10.90;;
7247;SDS011;3665;51.034;13.642;2023-02-23T13:38:26;14.57;;;10.83;;
7247;SDS011;3665;51.034;13.642;2023-02-23T13:43:31;12.80;;;11.50;;
7247;SDS011;3665;51.034;13.642;2023-02-23T13:48:34;10.90;;;9.77;;
7247;SDS011;3665;51.034;13.642;2023-02-23T13:53:44;10.80;;;9.70;;
7247;SDS011;3665;51.034;13.642;2023-02-23T13:58:39;12.43;;;10.60;;
7247;SDS011;3665;51.034;13.642;2023-02-23T14:03:51;10.03;;;9.00;;
7247;SDS011;3665;51.034;13.642;2023-02-23T14:08:41;11.23;;;9.53;;
7247;SDS011;3665;51.034;13.642;2023-02-23T14:13:40;12.73;;;10.97;;
7247;SDS011;3665;51.034;13.642;2023-02-23T14:18:55;10.17;;;8.67;;
7247;SDS011;3665;51.034;13.642;2023-02-23T14:24:01;14.27;;;11.77;;
7247;SDS011;3665;51.034;13.642;2023-02-23T14:34:07;18.00;;;15.30;;
7247;SDS011;3665;51.034;13.642;2023-02-23T14:38:57;22.17;;;15.93;;
7247;SDS011;3665;51.034;13.642;2023-02-23T14:43:43;18.60;;;15.03;;
7247;SDS011;3665;51.034;13.642;2023-02-23T14:48:31;22.23;;;17.17;;
7247;SDS011;3665;51.034;13.642;2023-02-23T14:53:19;22.07;;;16.33;;
7247;SDS011;3665;51.034;13.642;2023-02-23T14:58:17;21.00;;;17.37;;
7247;SDS011;3665;51.034;13.642;2023-02-23T15:03:09;25.50;;;17.97;;
7247;SDS011;3665;51.034;13.642;2023-02-23T15:08:00;33.97;;;20.50;;
7247;SDS011;3665;51.034;13.642;2023-02-23T15:12:48;27.97;;;19.37;;
7247;SDS011;3665;51.034;13.642;2023-02-23T15:17:35;28.33;;;18.60;;
7247;SDS011;3665;51.034;13.642;2023-02-23T15:22:27;26.87;;;18.50;;
7247;SDS011;3665;51.034;13.642;2023-02-23T15:27:17;23.23;;;19.53;;
7247;SDS011;3665;51.034;13.642;2023-02-23T15:32:12;26.27;;;20.57;;
7247;SDS011;3665;51.034;13.642;2023-02-23T15:42:26;27.40;;;19.10;;
7247;SDS011;3665;51.034;13.642;2023-02-23T15:47:17;23.67;;;19.83;;
7247;SDS011;3665;51.034;13.642;2023-02-23T15:52:12;21.87;;;17.20;;
7247;SDS011;3665;51.034;13.642;2023-02-23T15:57:05;25.03;;;19.40;;
7247;SDS011;3665;51.034;13.642;2023-02-23T16:02:11;26.47;;;18.53;;
7247;SDS011;3665;51.034;13.642;2023-02-23T16:07:13;27.20;;;20.33;;
7247;SDS011;3665;51.034;13.642;2023-02-23T16:11:59;24.83;;;19.90;;
7247;SDS011;3665;51.034;13.642;2023-02-23T16:16:46;28.03;;;19.63;;
7247;SDS011;3665;51.034;13.642;2023-02-23T16:21:52;25.03;;;20.20;;
7247;SDS011;3665;51.034;13.642;2023-02-23T16:26:43;28.87;;;21.90;;
7247;SDS011;3665;51.034;13.642;2023-02-23T16:37:14;26.70;;;21.40;;
7247;SDS011;3665;51.034;13.642;2023-02-23T16:42:08;26.90;;;22.07;;
7247;SDS011;3665;51.034;13.642;2023-02-23T16:52:19;31.60;;;24.27;;
7247;SDS011;3665;51.034;13.642;2023-02-23T16:57:04;28.93;;;23.77;;
7247;SDS011;3665;51.034;13.642;2023-02-23T17:02:00;27.30;;;23.07;;
7247;SDS011;3665;51.034;13.642;2023-02-23T17:06:55;29.87;;;23.27;;
7247;SDS011;3665;51.034;13.642;2023-02-23T17:11:45;30.53;;;23.60;;
7247;SDS011;3665;51.034;13.642;2023-02-23T17:16:34;29.73;;;23.47;;
7247;SDS011;3665;51.034;13.642;2023-02-23T17:21:20;32.67;;;24.13;;
7247;SDS011;3665;51.034;13.642;2023-02-23T17:26:08;35.97;;;26.17;;
7247;SDS011;3665;51.034;13.642;2023-02-23T17:30:57;31.23;;;24.20;;
7247;SDS011;3665;51.034;13.642;2023-02-23T17:35:46;34.53;;;25.20;;
7247;SDS011;3665;51.034;13.642;2023-02-23T17:40:32;33.57;;;26.80;;
7247;SDS011;3665;51.034;13.642;2023-02-23T17:45:18;38.47;;;28.03;;
7247;SDS011;3665;51.034;13.642;2023-02-23T17:50:07;39.10;;;29.77;;
7247;SDS011;3665;51.034;13.642;2023-02-23T17:54:55;43.30;;;30.63;;
7247;SDS011;3665;51.034;13.642;2023-02-23T17:59:43;44.83;;;31.13;;
7247;SDS011;3665;51.034;13.642;2023-02-23T18:04:35;41.97;;;31.93;;
7247;SDS011;3665;51.034;13.642;2023-02-23T18:09:20;45.37;;;31.77;;
7247;SDS011;3665;51.034;13.642;2023-02-23T18:14:07;45.80;;;33.27;;
7247;SDS011;3665;51.034;13.642;2023-02-23T18:18:57;45.73;;;32.77;;
7247;SDS011;3665;51.034;13.642;2023-02-23T18:24:00;49.13;;;34.03;;
7247;SDS011;3665;51.034;13.642;2023-02-23T18:28:49;50.07;;;33.43;;
7247;SDS011;3665;51.034;13.642;2023-02-23T18:33:37;44.57;;;32.57;;
7247;SDS011;3665;51.034;13.642;2023-02-23T18:38:24;54.27;;;36.97;;
7247;SDS011;3665;51.034;13.642;2023-02-23T18:43:11;51.93;;;36.47;;
7247;SDS011;3665;51.034;13.642;2023-02-23T18:48:03;51.07;;;35.33;;
7247;SDS011;3665;51.034;13.642;2023-02-23T18:53:08;45.80;;;34.57;;
7247;SDS011;3665;51.034;13.642;2023-02-23T18:57:52;50.43;;;36.37;;
7247;SDS011;3665;51.034;13.642;2023-02-23T19:02:39;53.37;;;38.80;;
7247;SDS011;3665;51.034;13.642;2023-02-23T19:07:29;53.53;;;37.30;;
7247;SDS011;3665;51.034;13.642;2023-02-23T19:12:17;56.07;;;36.90;;
7247;SDS011;3665;51.034;13.642;2023-02-23T19:17:04;47.50;;;34.80;;
7247;SDS011;3665;51.034;13.642;2023-02-23T19:21:51;47.10;;;32.00;;
7247;SDS011;3665;51.034;13.642;2023-02-23T19:31:43;48.23;;;33.47;;
7247;SDS011;3665;51.034;13.642;2023-02-23T19:36:31;44.80;;;30.83;;
7247;SDS011;3665;51.034;13.642;2023-02-23T19:41:19;43.67;;;30.63;;
7247;SDS011;3665;51.034;13.642;2023-02-23T19:46:09;40.03;;;29.60;;
7247;SDS011;3665;51.034;13.642;2023-02-23T19:50:55;43.13;;;29.60;;
7247;SDS011;3665;51.034;13.642;2023-02-23T19:55:43;46.23;;;31.60;;
7247;SDS011;3665;51.034;13.642;2023-02-23T20:00:32;46.77;;;30.70;;
7247;SDS011;3665;51.034;13.642;2023-02-23T20:05:22;48.33;;;32.50;;
7247;SDS011;3665;51.034;13.642;2023-02-23T20:10:09;47.50;;;31.50;;
7247;SDS011;3665;51.034;13.642;2023-02-23T20:14:57;42.47;;;29.83;;
7247;SDS011;3665;51.034;13.642;2023-02-23T20:19:44;43.27;;;29.93;;
7247;SDS011;3665;51.034;13.642;2023-02-23T20:24:34;46.37;;;31.93;;
7247;SDS011;3665;51.034;13.642;2023-02-23T20:29:20;42.13;;;30.10;;
7247;SDS011;3665;51.034;13.642;2023-02-23T20:34:07;42.97;;;26.87;;
7247;SDS011;3665;51.034;13.642;2023-02-23T20:38:56;34.57;;;25.67;;
7247;SDS011;3665;51.034;13.642;2023-02-23T20:43:45;37.17;;;26.90;;
7247;SDS011;3665;51.034;13.642;2023-02-23T20:48:32;38.27;;;25.87;;
7247;SDS011;3665;51.034;13.642;2023-02-23T20:53:19;41.00;;;26.50;;
7247;SDS011;3665;51.034;13.642;2023-02-23T20:58:07;41.63;;;28.10;;
7247;SDS011;3665;51.034;13.642;2023-02-23T21:08:52;40.40;;;27.20;;
7247;SDS011;3665;51.034;13.642;2023-02-23T21:14:25;44.63;;;28.53;;
7247;SDS011;3665;51.034;13.642;2023-02-23T21:33:12;41.57;;;29.03;;
7247;SDS011;3665;51.034;13.642;2023-02-23T21:40:00;50.80;;;30.73;;
7247;SDS011;3665;51.034;13.642;2023-02-23T21:56:23;84.97;;;48.07;;
7247;SDS011;3665;51.034;13.642;2023-02-23T22:01:56;75.37;;;46.20;;
7247;SDS011;3665;51.034;13.642;2023-02-23T22:06:41;86.53;;;47.23;;
7247;SDS011;3665;51.034;13.642;2023-02-23T22:11:28;83.33;;;49.07;;
7247;SDS011;3665;51.034;13.642;2023-02-23T22:16:31;84.17;;;46.63;;
7247;SDS011;3665;51.034;13.642;2023-02-23T22:21:21;76.00;;;46.67;;
7247;SDS011;3665;51.034;13.642;2023-02-23T22:26:08;75.23;;;44.13;;
7247;SDS011;3665;51.034;13.642;2023-02-23T22:30:55;69.10;;;40.93;;
7247;SDS011;3665;51.034;13.642;2023-02-23T22:35:44;67.43;;;40.93;;
7247;SDS011;3665;51.034;13.642;2023-02-23T22:40:33;70.03;;;39.93;;
7247;SDS011;3665;51.034;13.642;2023-02-23T22:45:21;62.70;;;38.10;;
7247;SDS011;3665;51.034;13.642;2023-02-23T22:50:09;55.87;;;34.13;;
7247;SDS011;3665;51.034;13.642;2023-02-23T22:54:55;58.90;;;36.97;;
7247;SDS011;3665;51.034;13.642;2023-02-23T22:59:45;59.80;;;37.20;;
7247;SDS011;3665;51.034;13.642;2023-02-23T23:04:47;63.63;;;37.73;;
7247;SDS011;3665;51.034;13.642;2023-02-23T23:09:35;69.67;;;38.33;;
7247;SDS011;3665;51.034;13.642;2023-02-23T23:14:24;65.13;;;39.20;;
7247;SDS011;3665;51.034;13.642;2023-02-23T23:19:14;74.73;;;42.63;;
7247;SDS011;3665;51.034;13.642;2023-02-23T23:24:00;79.20;;;42.77;;
7247;SDS011;3665;51.034;13.642;2023-02-23T23:28:48;85.03;;;45.93;;
7247;SDS011;3665;51.034;13.642;2023-02-23T23:33:38;90.53;;;46.53;;
7247;SDS011;3665;51.034;13.642;2023-02-23T23:38:44;82.00;;;45.17;;
7247;SDS011;3665;51.034;13.642;2023-02-23T23:43:28;81.40;;;45.00;;
7247;SDS011;3665;51.034;13.642;2023-02-23T23:48:15;73.57;;;40.97;;
7247;SDS011;3665;51.034;13.642;2023-02-23T23:53:05;72.17;;;38.10;;
7247;SDS011;3665;51.034;13.642;2023-02-23T23:57:54;64.90;;;38.20;;
